Squirrel Hill, Pennsylvania
Current Conditions -  °F | °C
As of 6:53 AM on Thursday 27 Nov 2014 (Local Time) from KAGC Reporting Station
Haze Haze  
Wind Chill: 32°   Ceiling: 1800
Heat Index: 32°   Visibility: 2mi
Dew Point: 28°   Wind: 3mph
Humidity: 85%   Direction: 300°WNW
Pressure: 30.01"   Gusts: NA
Location:  40.4306°N, 79.9221°W
Report Text: KAGC 271153Z 30003KT 2SM BR SCT007 SCT010 OVC018 00/M02 A3001 RMK AO2 SLP178 70014 T00001022 10000 21006 53009
Loading
Personal Weather Stations






























Interactive Weather Map New forecast layout! Learn more

10-Day Weather Forecast

Advertisements
Track Severe Weather on mobile